Time;durP1;ratioP1;P1;durP2;ratioP2;P2;SDS_P1;SDS_P2;PMS_P1;PMS_P2;Temp;Humidity;BMP_temperature;BMP_pressure;BME280_temperature;BME280_humidity;BME280_pressure;Samples;Min_cycle;Max_cycle;Signal;HPM_P1;HPM_P2
2022/04/20 00:00:50;;;;;;;;;;;;;;;4.24;68.61;99210.72;5035244;28;20020;-63
2022/04/20 00:03:15;;;;;;;;;;;;;;;4.19;68.60;99205.25;5034670;28;19974;-64
2022/04/20 00:05:41;;;;;;;;;;;;;;;4.13;68.70;99195.56;5035347;28;20028;-64
2022/04/20 00:08:07;;;;;;;;;;;;;;;4.12;69.42;99198.38;5035021;28;19929;-65
2022/04/20 00:10:32;;;;;;;;;;;;;;;4.06;69.15;99194.78;5035029;28;19925;-64
2022/04/20 00:12:58;;;;;;;;;;;;;;;4.03;69.92;99195.97;5033351;28;19929;-64
2022/04/20 00:15:23;;;;;;;;;;;;;;;4.01;69.86;99191.94;5033479;28;20026;-65
2022/04/20 00:17:49;;;;;;;;;;;;;;;4.01;70.40;99195.34;5034794;28;19939;-64
2022/04/20 00:20:15;;;;;;;;;;;;;;;4.00;70.93;99187.66;5035058;28;20301;-64
2022/04/20 00:22:41;;;;;;;;;;;;;;;3.98;71.18;99187.88;5034202;28;20457;-65
2022/04/20 00:25:07;;;;;;;;;;;;;;;3.98;71.23;99189.72;5034890;28;20008;-64
2022/04/20 00:27:35;;;;;;;;;;;;;;;3.96;71.58;99195.13;5033458;28;20016;-66
2022/04/20 00:30:05;;;;;;;;;;;;;;;3.94;72.16;99199.78;5034563;28;19925;-65
2022/04/20 00:32:30;;;;;;;;;;;;;;;3.97;72.71;99198.56;5032810;28;20306;-63
2022/04/20 00:34:56;;;;;;;;;;;;;;;3.99;73.10;99199.19;5033244;28;19925;-65
2022/04/20 00:37:21;;;;;;;;;;;;;;;3.99;73.38;99205.22;5033184;28;20050;-65
2022/04/20 00:39:47;;;;;;;;;;;;;;;4.01;73.49;99207.66;5033499;28;20451;-64
2022/04/20 00:42:13;;;;;;;;;;;;;;;4.02;73.38;99212.69;5032478;28;20369;-65
2022/04/20 00:44:39;;;;;;;;;;;;;;;4.07;73.68;99201.63;5034309;28;20062;-64
2022/04/20 00:47:05;;;;;;;;;;;;;;;4.08;73.12;99206.66;5033239;28;19932;-63
2022/04/20 00:49:30;;;;;;;;;;;;;;;4.08;73.42;99205.84;5000304;28;20318;-66
2022/04/20 00:51:57;;;;;;;;;;;;;;;4.07;73.22;99215.53;5032886;28;19929;-64
2022/04/20 00:54:24;;;;;;;;;;;;;;;4.05;73.30;99208.88;5034053;28;19940;-66
2022/04/20 00:56:50;;;;;;;;;;;;;;;4.02;73.40;99217.13;5033011;28;19925;-64
2022/04/20 00:59:24;;;;;;;;;;;;;;;3.98;73.63;99218.56;5049256;28;19979;-64
2022/04/20 01:01:50;;;;;;;;;;;;;;;3.92;73.10;99221.97;5015279;28;20464;-63
2022/04/20 01:04:16;;;;;;;;;;;;;;;3.92;73.46;99217.53;5032940;28;19929;-65
2022/04/20 01:07:11;;;;;;;;;;;;;;;3.89;73.39;99211.88;5011706;28;20429;-64
2022/04/20 01:09:55;;;;;;;;;;;;;;;3.84;73.85;99204.59;5011600;28;19980;-65
2022/04/20 01:12:45;;;;;;;;;;;;;;;3.82;73.99;99210.06;4972603;28;20056;-65
2022/04/20 01:15:17;;;;;;;;;;;;;;;3.79;74.01;99207.78;5011685;28;20369;-64
2022/04/20 01:18:11;;;;;;;;;;;;;;;3.79;74.06;99207.00;5011711;28;20445;-64
2022/04/20 01:20:55;;;;;;;;;;;;;;;3.75;74.07;99201.34;5010957;28;19925;-65
2022/04/20 01:23:38;;;;;;;;;;;;;;;3.73;74.48;99213.03;5011567;28;20432;-63
2022/04/20 01:26:27;;;;;;;;;;;;;;;3.73;74.75;99211.22;5006196;28;20422;-64
2022/04/20 01:29:13;;;;;;;;;;;;;;;3.72;74.87;99212.22;4983786;28;19996;-64
2022/04/20 01:32:14;;;;;;;;;;;;;;;3.70;75.11;99208.19;4936820;29;19926;-64
2022/04/20 01:34:52;;;;;;;;;;;;;;;3.67;74.96;99204.13;4986731;28;20439;-64
2022/04/20 01:37:18;;;;;;;;;;;;;;;3.65;75.10;99216.66;4995026;28;19929;-65
2022/04/20 01:39:44;;;;;;;;;;;;;;;3.63;75.16;99203.72;5012363;28;19951;-66
2022/04/20 01:42:10;;;;;;;;;;;;;;;3.60;75.04;99211.97;5031596;28;19925;-64
2022/04/20 01:44:42;;;;;;;;;;;;;;;3.57;74.97;99219.44;5015386;28;19945;-63
2022/04/20 01:47:14;;;;;;;;;;;;;;;3.58;74.67;99219.22;5033196;28;20310;-66
2022/04/20 01:49:56;;;;;;;;;;;;;;;3.62;74.66;99217.03;5032879;28;20444;-64
2022/04/20 01:52:40;;;;;;;;;;;;;;;3.62;74.35;99209.97;5033301;28;19929;-64
2022/04/20 01:55:26;;;;;;;;;;;;;;;3.66;74.41;99214.84;4982072;28;19925;-64
2022/04/20 01:58:24;;;;;;;;;;;;;;;3.67;74.21;99219.06;5020772;28;20330;-65
2022/04/20 02:04:00;;;;;;;;;;;;;;;3.64;74.19;99228.91;5031945;28;19983;-65
2022/04/20 02:06:29;;;;;;;;;;;;;;;3.62;73.88;99228.34;4999255;28;19929;-65
2022/04/20 02:09:04;;;;;;;;;;;;;;;3.64;73.56;99218.44;5014809;28;19979;-65
2022/04/20 02:11:46;;;;;;;;;;;;;;;3.63;72.84;99208.16;5031524;28;19956;-63
2022/04/20 02:14:18;;;;;;;;;;;;;;;3.62;72.45;99214.44;5031528;28;19933;-63
2022/04/20 02:16:50;;;;;;;;;;;;;;;3.63;73.16;99205.53;5031576;28;19932;-63
2022/04/20 02:19:32;;;;;;;;;;;;;;;3.68;72.86;99212.81;5030880;28;19929;-64
2022/04/20 02:22:03;;;;;;;;;;;;;;;3.85;72.30;99206.19;5014948;28;19925;-66
2022/04/20 02:24:28;;;;;;;;;;;;;;;4.00;71.91;99208.66;5031528;28;19952;-65
2022/04/20 02:26:54;;;;;;;;;;;;;;;4.12;71.15;99209.72;4998552;28;19925;-64
2022/04/20 02:29:19;;;;;;;;;;;;;;;4.28;70.15;99213.75;5032378;28;20036;-65
2022/04/20 02:31:45;;;;;;;;;;;;;;;4.37;70.00;99199.41;5014509;28;19932;-64
2022/04/20 02:34:10;;;;;;;;;;;;;;;4.55;69.22;99204.06;5031379;28;19929;-64
2022/04/20 02:36:36;;;;;;;;;;;;;;;4.64;68.48;99194.16;5031243;28;19999;-64
2022/04/20 02:39:03;;;;;;;;;;;;;;;4.74;68.04;99200.63;5030607;28;19935;-64
2022/04/20 02:41:30;;;;;;;;;;;;;;;4.92;67.22;99212.31;5031105;28;20409;-63
2022/04/20 02:43:55;;;;;;;;;;;;;;;5.02;66.12;99210.06;5014463;28;19929;-65
2022/04/20 02:46:23;;;;;;;;;;;;;;;5.19;65.69;99203.34;5032359;28;19951;-63
2022/04/20 02:48:49;;;;;;;;;;;;;;;5.35;64.70;99202.09;5030680;28;19975;-64
2022/04/20 02:51:14;;;;;;;;;;;;;;;5.57;63.72;99200.00;5032260;28;19931;-64
2022/04/20 02:53:40;;;;;;;;;;;;;;;5.58;62.80;99208.69;5031963;28;20024;-64
2022/04/20 02:56:06;;;;;;;;;;;;;;;5.58;63.00;99201.59;5030816;28;19925;-64
2022/04/20 02:58:33;;;;;;;;;;;;;;;5.76;62.07;99200.91;5030118;28;19983;-65
2022/04/20 03:01:00;;;;;;;;;;;;;;;5.83;61.89;99212.22;5030773;28;19925;-64
2022/04/20 03:03:39;;;;;;;;;;;;;;;5.90;60.99;99207.69;5030663;28;20436;-65
2022/04/20 03:06:17;;;;;;;;;;;;;;;6.03;60.09;99208.66;5013980;28;19925;-63
2022/04/20 03:08:42;;;;;;;;;;;;;;;6.09;59.74;99208.66;5031864;28;20420;-65
2022/04/20 03:11:12;;;;;;;;;;;;;;;6.11;58.49;99203.97;5030588;28;19932;-64
2022/04/20 03:13:39;;;;;;;;;;;;;;;6.19;58.34;99213.44;5013903;28;20007;-63
2022/04/20 03:16:04;;;;;;;;;;;;;;;6.24;57.59;99218.06;5030209;28;19968;-63
2022/04/20 03:18:32;;;;;;;;;;;;;;;6.39;57.20;99209.88;5029738;28;19929;-64
2022/04/20 03:21:02;;;;;;;;;;;;;;;6.41;57.31;99213.06;5030328;28;19975;-64
2022/04/20 03:23:28;;;;;;;;;;;;;;;6.47;55.98;99213.03;5031436;28;19929;-64
2022/04/20 03:26:00;;;;;;;;;;;;;;;6.45;56.32;99212.44;5034286;28;20321;-64
2022/04/20 03:28:51;;;;;;;;;;;;;;;6.45;55.48;99220.34;5033860;28;19929;-65
2022/04/20 03:31:17;;;;;;;;;;;;;;;6.43;56.31;99211.84;5034102;28;19925;-64
2022/04/20 03:33:42;;;;;;;;;;;;;;;6.52;55.96;99215.81;5034252;28;20361;-63
2022/04/20 03:36:08;;;;;;;;;;;;;;;6.69;54.63;99218.72;5035543;28;19936;-64
2022/04/20 03:38:34;;;;;;;;;;;;;;;6.63;53.93;99226.69;5033535;28;19975;-63
2022/04/20 03:40:59;;;;;;;;;;;;;;;6.67;54.35;99235.75;5035611;28;19925;-65
2022/04/20 03:43:25;;;;;;;;;;;;;;;6.68;53.75;99240.81;5034569;28;19929;-63
2022/04/20 03:45:50;;;;;;;;;;;;;;;6.77;53.52;99230.81;5033004;28;19973;-63
2022/04/20 03:48:16;;;;;;;;;;;;;;;6.74;53.36;99242.59;5034589;28;19928;-64
2022/04/20 03:50:42;;;;;;;;;;;;;;;6.90;52.77;99256.25;5034972;28;20028;-64
2022/04/20 03:53:08;;;;;;;;;;;;;;;6.93;52.81;99240.00;5034189;28;20031;-63
2022/04/20 03:55:34;;;;;;;;;;;;;;;7.00;52.51;99232.81;5033881;28;20023;-65
2022/04/20 03:58:00;;;;;;;;;;;;;;;7.10;52.06;99246.31;5033642;28;19943;-64
2022/04/20 04:00:26;;;;;;;;;;;;;;;7.18;51.45;99224.16;5033862;28;19925;-64
2022/04/20 04:02:53;;;;;;;;;;;;;;;7.27;50.91;99251.84;5016973;28;19929;-64
2022/04/20 04:05:28;;;;;;;;;;;;;;;7.47;49.74;99235.78;5035094;28;19925;-64
2022/04/20 04:07:59;;;;;;;;;;;;;;;7.66;48.94;99253.22;5033766;28;19948;-64
2022/04/20 04:10:30;;;;;;;;;;;;;;;7.72;48.61;99240.97;5033620;28;19929;-66
2022/04/20 04:12:55;;;;;;;;;;;;;;;7.65;48.54;99227.88;5033499;28;19982;-65
2022/04/20 04:15:22;;;;;;;;;;;;;;;7.89;48.12;99234.06;5016620;28;19960;-65
2022/04/20 04:17:54;;;;;;;;;;;;;;;7.96;47.15;99231.31;5033555;28;20405;-64
2022/04/20 04:20:21;;;;;;;;;;;;;;;8.03;47.08;99232.03;5016912;28;19929;-65
2022/04/20 04:22:49;;;;;;;;;;;;;;;8.14;46.75;99225.19;5033472;28;19929;-64
2022/04/20 04:25:53;;;;;;;;;;;;;;;8.29;45.62;99233.47;4997086;28;19926;-65
2022/04/20 04:28:41;;;;;;;;;;;;;;;8.47;45.00;99230.00;4990345;28;20414;-65
2022/04/20 04:31:08;;;;;;;;;;;;;;;8.47;43.57;99232.66;4998248;28;20326;-64
2022/04/20 04:33:35;;;;;;;;;;;;;;;8.35;43.58;99248.44;5024455;28;19929;-64
2022/04/20 04:36:02;;;;;;;;;;;;;;;8.27;43.98;99222.34;5032053;28;20287;-64
2022/04/20 04:38:30;;;;;;;;;;;;;;;8.20;44.38;99211.06;5031501;28;19983;-62
2022/04/20 04:40:56;;;;;;;;;;;;;;;8.25;43.84;99205.91;5031459;28;20325;-63
2022/04/20 04:43:23;;;;;;;;;;;;;;;8.22;44.32;99227.50;5013170;28;20478;-69
2022/04/20 04:48:43;;;;;;;;;;;;;;;8.03;43.21;99210.09;5013007;28;20031;-64
2022/04/20 04:51:14;;;;;;;;;;;;;;;8.07;43.48;99195.44;5012645;28;19972;-65
2022/04/20 04:53:42;;;;;;;;;;;;;;;8.15;43.67;99210.97;5012936;28;20425;-64
2022/04/20 04:56:11;;;;;;;;;;;;;;;8.07;43.16;99212.06;5013119;28;19932;-66
2022/04/20 04:58:47;;;;;;;;;;;;;;;7.95;43.28;99206.75;5031563;28;19945;-67
2022/04/20 05:01:13;;;;;;;;;;;;;;;7.93;44.03;99203.53;5032629;28;19925;-65
2022/04/20 05:03:39;;;;;;;;;;;;;;;7.92;43.02;99214.31;5032612;28;20333;-66
2022/04/20 05:06:06;;;;;;;;;;;;;;;7.85;43.41;99190.69;5016092;28;20376;-65
2022/04/20 05:08:52;;;;;;;;;;;;;;;7.81;43.80;99207.16;5012172;28;19936;-62
2022/04/20 05:11:19;;;;;;;;;;;;;;;7.82;43.33;99204.28;5032679;28;20368;-66
2022/04/20 05:13:44;;;;;;;;;;;;;;;7.83;43.20;99205.13;5032664;28;19929;-68
2022/04/20 05:16:11;;;;;;;;;;;;;;;7.87;42.82;99220.25;5031879;28;20003;-66
2022/04/20 05:18:38;;;;;;;;;;;;;;;7.89;41.98;99214.78;5012467;28;19930;-71
2022/04/20 05:21:04;;;;;;;;;;;;;;;8.00;41.43;99218.47;5027762;28;19991;-65
2022/04/20 05:23:30;;;;;;;;;;;;;;;8.06;40.69;99226.31;4978448;28;19984;-68
2022/04/20 05:25:56;;;;;;;;;;;;;;;8.15;40.99;99230.25;4996138;28;20014;-68
2022/04/20 05:28:23;;;;;;;;;;;;;;;8.18;39.11;99231.63;5014143;28;20040;-67
2022/04/20 05:30:51;;;;;;;;;;;;;;;8.27;39.07;99211.78;5030685;28;19932;-68
2022/04/20 05:33:17;;;;;;;;;;;;;;;8.37;39.07;99235.00;5032474;28;19925;-66
2022/04/20 05:35:42;;;;;;;;;;;;;;;8.50;37.50;99220.81;5013981;28;19929;-67
2022/04/20 05:43:43;;;;;;;;;;;;;;;8.77;33.52;99229.13;5011560;28;19933;-72
2022/04/20 05:46:10;;;;;;;;;;;;;;;8.84;32.76;99241.19;5029781;28;19933;-71
2022/04/20 05:48:46;;;;;;;;;;;;;;;8.97;32.77;99250.75;5031619;28;20031;-71
2022/04/20 05:51:14;;;;;;;;;;;;;;;9.05;31.70;99249.56;5015049;28;20394;-75
2022/04/20 05:53:42;;;;;;;;;;;;;;;9.11;31.56;99232.78;5015534;28;19932;-67
2022/04/20 05:56:08;;;;;;;;;;;;;;;9.12;29.57;99236.22;5013677;28;19929;-68
2022/04/20 05:58:39;;;;;;;;;;;;;;;9.21;30.00;99225.09;5030949;28;19932;-67
2022/04/20 06:01:05;;;;;;;;;;;;;;;9.25;29.37;99252.66;4998039;28;19929;-67
2022/04/20 06:03:49;;;;;;;;;;;;;;;9.15;29.77;99244.53;5017035;28;20002;-67
2022/04/20 06:06:43;;;;;;;;;;;;;;;9.21;30.57;99264.75;4997660;28;19929;-67
2022/04/20 06:09:13;;;;;;;;;;;;;;;9.19;30.38;99258.88;5012810;28;19979;-71
2022/04/20 06:11:41;;;;;;;;;;;;;;;9.32;31.38;99266.59;5030655;28;19930;-69
2022/04/20 06:14:09;;;;;;;;;;;;;;;9.27;30.41;99261.19;4998761;28;19932;-68
2022/04/20 06:16:46;;;;;;;;;;;;;;;9.33;30.68;99241.72;5029349;28;20298;-68
2022/04/20 06:19:19;;;;;;;;;;;;;;;9.40;30.55;99254.81;5013280;28;20039;-67
2022/04/20 06:22:08;;;;;;;;;;;;;;;9.46;31.22;99235.38;5029524;28;19932;-68
2022/04/20 06:25:09;;;;;;;;;;;;;;;9.52;30.22;99245.03;4988317;28;19940;-71
2022/04/20 06:27:36;;;;;;;;;;;;;;;9.58;29.45;99239.84;5007614;28;19947;-69
2022/04/20 06:30:22;;;;;;;;;;;;;;;9.63;29.77;99261.91;4969711;28;19930;-69
2022/04/20 06:33:26;;;;;;;;;;;;;;;9.69;30.31;99253.03;4949539;29;20427;-69
2022/04/20 06:35:53;;;;;;;;;;;;;;;9.79;30.61;99252.44;4949778;29;20034;-69
2022/04/20 06:38:36;;;;;;;;;;;;;;;9.84;29.67;99271.06;4984048;28;19925;-67
2022/04/20 06:41:05;;;;;;;;;;;;;;;9.88;29.00;99258.16;5030041;28;19929;-69
2022/04/20 06:43:46;;;;;;;;;;;;;;;9.91;29.31;99271.75;5029484;28;19925;-65
2022/04/20 06:46:46;;;;;;;;;;;;;;;10.01;29.31;99274.56;5007721;28;20361;-65
2022/04/20 06:49:30;;;;;;;;;;;;;;;10.12;28.98;99294.13;5008973;28;19952;-65
2022/04/20 07:00:19;;;;;;;;;;;;;;;10.28;26.79;99274.03;4963563;28;19930;-71
2022/04/20 07:03:14;;;;;;;;;;;;;;;10.31;26.45;99318.59;4987408;28;19925;-70
2022/04/20 07:06:00;;;;;;;;;;;;;;;10.35;26.62;99281.81;5007801;28;19960;-66
2022/04/20 07:08:26;;;;;;;;;;;;;;;10.32;26.36;99284.94;5006210;28;19925;-66
2022/04/20 07:11:02;;;;;;;;;;;;;;;10.32;25.50;99272.50;4986391;28;19929;-65
2022/04/20 07:13:28;;;;;;;;;;;;;;;10.33;25.75;99258.22;4989453;28;20461;-65
2022/04/20 07:15:54;;;;;;;;;;;;;;;10.42;26.10;99256.00;5017402;28;20051;-65
2022/04/20 07:18:19;;;;;;;;;;;;;;;10.42;26.67;99250.69;5024950;28;19929;-66
2022/04/20 07:20:47;;;;;;;;;;;;;;;10.52;24.89;99264.09;5029123;28;19929;-64
2022/04/20 07:23:33;;;;;;;;;;;;;;;10.53;25.01;99260.44;5030823;28;19925;-65
2022/04/20 07:26:05;;;;;;;;;;;;;;;10.53;25.18;99252.47;5029761;28;19929;-66
2022/04/20 07:28:55;;;;;;;;;;;;;;;10.55;25.45;99252.22;5030879;28;19925;-66
2022/04/20 07:31:49;;;;;;;;;;;;;;;10.52;25.16;99274.69;5012112;28;19933;-67
2022/04/20 07:34:24;;;;;;;;;;;;;;;10.55;24.89;99246.91;5029989;28;19936;-66
2022/04/20 07:37:08;;;;;;;;;;;;;;;10.64;25.24;99229.56;5030203;28;19929;-67
2022/04/20 07:39:50;;;;;;;;;;;;;;;10.69;25.08;99264.91;5029629;28;19940;-68
2022/04/20 07:42:37;;;;;;;;;;;;;;;10.72;25.70;99253.03;5022702;28;19929;-66
2022/04/20 07:45:29;;;;;;;;;;;;;;;10.60;24.82;99244.38;5008048;28;19929;-67
2022/04/20 07:48:13;;;;;;;;;;;;;;;10.68;24.16;99258.03;5028657;28;19925;-64
2022/04/20 07:50:53;;;;;;;;;;;;;;;10.68;24.58;99212.94;5030241;28;19929;-62
2022/04/20 07:53:57;;;;;;;;;;;;;;;10.78;24.89;99222.91;4995372;28;19925;-65
2022/04/20 07:56:52;;;;;;;;;;;;;;;10.93;23.06;99213.56;4999621;28;19929;-63
2022/04/20 07:59:28;;;;;;;;;;;;;;;10.95;23.37;99269.81;4972803;28;20028;-61
2022/04/20 08:02:14;;;;;;;;;;;;;;;10.88;22.40;99220.41;4976907;28;19971;-64
2022/04/20 08:05:09;;;;;;;;;;;;;;;10.85;23.18;99241.28;4977533;28;20408;-64
2022/04/20 08:07:34;;;;;;;;;;;;;;;10.96;22.92;99200.63;4938428;28;19957;-64
2022/04/20 08:10:00;;;;;;;;;;;;;;;11.09;23.09;99187.00;4955946;28;19934;-64
2022/04/20 08:12:28;;;;;;;;;;;;;;;11.19;23.43;99212.88;4972992;28;20392;-64
2022/04/20 08:14:54;;;;;;;;;;;;;;;11.31;23.26;99202.94;4984323;28;19936;-63
2022/04/20 08:17:23;;;;;;;;;;;;;;;11.36;24.10;99205.66;4967830;28;20334;-67
2022/04/20 08:20:09;;;;;;;;;;;;;;;11.34;22.90;99215.72;4977424;28;20043;-66
2022/04/20 08:22:42;;;;;;;;;;;;;;;11.30;22.29;99227.06;4973232;28;19936;-66
2022/04/20 08:25:09;;;;;;;;;;;;;;;11.23;22.08;99223.78;4975394;28;19930;-66
2022/04/20 08:27:34;;;;;;;;;;;;;;;11.25;22.17;99219.03;4991618;28;19929;-63
2022/04/20 08:30:00;;;;;;;;;;;;;;;11.25;22.22;99217.19;4974346;28;20100;-61
2022/04/20 08:32:26;;;;;;;;;;;;;;;11.30;22.39;99241.16;4981735;28;19925;-67
2022/04/20 08:34:51;;;;;;;;;;;;;;;11.35;22.32;99217.34;4992280;28;20033;-62
2022/04/20 08:37:17;;;;;;;;;;;;;;;11.37;21.85;99256.88;5032470;28;20202;-62
2022/04/20 08:39:43;;;;;;;;;;;;;;;11.37;21.63;99236.44;5032070;28;20012;-63
2022/04/20 08:42:11;;;;;;;;;;;;;;;11.48;22.37;99210.03;5033634;28;19932;-62
2022/04/20 08:44:37;;;;;;;;;;;;;;;11.48;23.37;99202.09;5034075;28;20040;-62
2022/04/20 08:47:04;;;;;;;;;;;;;;;11.41;23.26;99212.06;5032635;28;19979;-62
2022/04/20 08:49:30;;;;;;;;;;;;;;;11.44;23.28;99207.09;5033737;28;20394;-62
2022/04/20 08:52:38;;;;;;;;;;;;;;;11.54;23.34;99191.28;5031988;28;19932;-63
2022/04/20 08:54:44;;;;;;;;;;;;;;;11.63;23.47;99190.84;5026285;28;20067;-64
2022/04/20 08:57:16;;;;;;;;;;;;;;;11.70;23.26;99210.81;5031831;28;20027;-65
2022/04/20 08:59:47;;;;;;;;;;;;;;;11.78;23.60;99204.28;5032327;28;19936;-65
2022/04/20 09:02:12;;;;;;;;;;;;;;;11.91;24.41;99193.31;5031269;28;19924;-63
2022/04/20 09:04:38;;;;;;;;;;;;;;;11.94;24.23;99207.91;5032554;28;20023;-62
2022/04/20 09:07:06;;;;;;;;;;;;;;;11.92;24.50;99220.66;5032171;28;19925;-61
2022/04/20 09:09:33;;;;;;;;;;;;;;;11.91;24.39;99213.72;5033168;28;19936;-66
2022/04/20 09:11:59;;;;;;;;;;;;;;;11.86;24.03;99233.06;5015484;28;20414;-64
2022/04/20 09:14:28;;;;;;;;;;;;;;;11.92;23.69;99221.47;5033331;28;19929;-65
2022/04/20 09:16:57;;;;;;;;;;;;;;;12.03;23.13;99209.09;5032939;28;19948;-63
2022/04/20 09:19:24;;;;;;;;;;;;;;;12.13;21.63;99201.19;5031562;28;19932;-66
2022/04/20 09:21:49;;;;;;;;;;;;;;;12.13;21.48;99192.44;5031640;28;20052;-63
2022/04/20 09:24:15;;;;;;;;;;;;;;;12.23;23.01;99195.97;5033053;28;20023;-64
2022/04/20 09:26:51;;;;;;;;;;;;;;;12.28;24.77;99198.66;5031409;28;19929;-63
2022/04/20 09:29:16;;;;;;;;;;;;;;;12.28;24.81;99206.66;5033191;28;19936;-63
2022/04/20 09:31:43;;;;;;;;;;;;;;;12.28;25.49;99205.84;5030971;28;19925;-63
2022/04/20 09:34:08;;;;;;;;;;;;;;;12.24;25.59;99202.09;5031515;28;19952;-63
2022/04/20 09:36:41;;;;;;;;;;;;;;;12.30;25.10;99208.28;5032902;28;19930;-61
2022/04/20 09:39:07;;;;;;;;;;;;;;;12.43;25.01;99199.84;5033062;28;19978;-61
2022/04/20 09:41:32;;;;;;;;;;;;;;;12.40;24.32;99240.25;5032843;28;20305;-67
2022/04/20 09:44:08;;;;;;;;;;;;;;;12.39;25.22;99215.50;5032536;28;19925;-65
2022/04/20 09:49:33;;;;;;;;;;;;;;;12.30;25.51;99222.34;5030737;28;19929;-63
2022/04/20 09:52:07;;;;;;;;;;;;;;;12.35;25.34;99240.19;5029483;28;20280;-67
2022/04/20 09:54:32;;;;;;;;;;;;;;;12.30;25.70;99238.31;5012672;28;19971;-64
2022/04/20 09:57:08;;;;;;;;;;;;;;;12.27;25.52;99226.31;5030520;28;19969;-60
2022/04/20 09:59:34;;;;;;;;;;;;;;;12.33;25.72;99223.72;5031674;28;19937;-63
2022/04/20 10:02:02;;;;;;;;;;;;;;;12.43;25.67;99215.81;5032254;28;19982;-63
2022/04/20 10:04:29;;;;;;;;;;;;;;;12.43;24.74;99256.47;5030392;28;20342;-63
2022/04/20 10:06:55;;;;;;;;;;;;;;;12.40;24.25;99251.66;5014318;28;20425;-63
2022/04/20 10:09:20;;;;;;;;;;;;;;;12.42;23.88;99219.53;5032795;28;19928;-65
2022/04/20 10:11:46;;;;;;;;;;;;;;;12.51;23.99;99212.69;5031721;28;20415;-64
2022/04/20 10:16:56;;;;;;;;;;;;;;;12.68;25.02;99217.88;5016725;28;19949;-62
2022/04/20 10:19:25;;;;;;;;;;;;;;;12.71;25.21;99215.50;5030932;28;20011;-64
2022/04/20 10:21:52;;;;;;;;;;;;;;;12.75;25.50;99213.13;5031664;28;19925;-64
2022/04/20 10:24:18;;;;;;;;;;;;;;;12.72;25.60;99205.66;5030970;28;19929;-63
2022/04/20 10:26:45;;;;;;;;;;;;;;;12.73;25.65;99226.69;5030546;28;19925;-63
2022/04/20 10:29:17;;;;;;;;;;;;;;;12.77;25.35;99197.72;5030673;28;19936;-64
2022/04/20 10:31:45;;;;;;;;;;;;;;;12.87;26.34;99202.28;5030883;28;19929;-61
2022/04/20 10:34:18;;;;;;;;;;;;;;;12.87;26.31;99231.56;5031046;28;19932;-63
2022/04/20 10:37:05;;;;;;;;;;;;;;;12.87;26.69;99199.63;5030396;28;20000;-63
2022/04/20 10:39:39;;;;;;;;;;;;;;;12.81;26.96;99212.09;5030879;28;19939;-62
2022/04/20 10:42:16;;;;;;;;;;;;;;;12.87;27.35;99202.28;5030585;28;20378;-63
2022/04/20 10:44:47;;;;;;;;;;;;;;;12.92;27.34;99215.63;5031335;28;19929;-62
2022/04/20 10:47:17;;;;;;;;;;;;;;;12.94;27.49;99211.66;5030260;28;20366;-63
2022/04/20 10:49:43;;;;;;;;;;;;;;;12.93;27.45;99212.69;5031124;28;19933;-63
2022/04/20 10:52:21;;;;;;;;;;;;;;;13.01;26.95;99215.97;5031468;28;20981;-60
2022/04/20 10:54:51;;;;;;;;;;;;;;;12.94;27.04;99214.31;5010064;28;19937;-63
2022/04/20 10:57:17;;;;;;;;;;;;;;;12.96;27.40;99206.06;5027452;28;19932;-62
2022/04/20 10:59:43;;;;;;;;;;;;;;;12.98;26.96;99257.19;5022306;28;19929;-61
2022/04/20 11:02:09;;;;;;;;;;;;;;;12.96;27.52;99188.25;5030556;28;20500;-65
2022/04/20 11:04:50;;;;;;;;;;;;;;;12.98;26.85;99198.66;5029632;28;19975;-61
2022/04/20 11:07:17;;;;;;;;;;;;;;;12.94;27.43;99206.34;5031657;28;19925;-64
2022/04/20 11:09:42;;;;;;;;;;;;;;;12.95;27.35;99186.66;5030412;28;20395;-60
2022/04/20 11:20:58;;;;;;;;;;;;;;;12.96;27.92;99208.72;5029397;28;19980;-65
2022/04/20 11:23:44;;;;;;;;;;;;;;;13.00;27.58;99212.50;5031665;28;20333;-61
2022/04/20 11:26:14;;;;;;;;;;;;;;;13.00;27.48;99193.88;5031166;28;19939;-61
2022/04/20 11:28:40;;;;;;;;;;;;;;;13.09;27.46;99205.63;5027855;28;19925;-62
2022/04/20 11:31:06;;;;;;;;;;;;;;;13.06;27.39;99205.31;5028701;28;19933;-63
2022/04/20 11:33:32;;;;;;;;;;;;;;;12.96;27.84;99198.88;5029375;28;19925;-62
2022/04/20 11:35:57;;;;;;;;;;;;;;;12.98;27.89;99198.66;5013862;28;19929;-61
2022/04/20 11:38:36;;;;;;;;;;;;;;;12.96;27.86;99184.78;5031017;28;20428;-62
2022/04/20 11:41:01;;;;;;;;;;;;;;;13.02;27.61;99188.28;5028351;28;20399;-62
2022/04/20 11:43:27;;;;;;;;;;;;;;;13.08;28.22;99203.22;5025425;28;19979;-62
2022/04/20 11:45:54;;;;;;;;;;;;;;;13.12;27.68;99194.47;5022401;28;19971;-63
2022/04/20 11:48:23;;;;;;;;;;;;;;;13.10;27.93;99233.84;5033970;28;19987;-63
2022/04/20 11:50:56;;;;;;;;;;;;;;;13.09;27.98;99194.97;5019564;28;19976;-62
2022/04/20 11:53:30;;;;;;;;;;;;;;;13.12;28.44;99173.19;5035227;28;19975;-62
2022/04/20 11:56:07;;;;;;;;;;;;;;;13.14;28.41;99151.63;5032824;28;19936;-63
2022/04/20 11:58:32;;;;;;;;;;;;;;;13.17;28.32;99169.72;5034800;28;19925;-62
2022/04/20 12:01:01;;;;;;;;;;;;;;;13.17;28.57;99151.88;5034844;28;19929;-64
2022/04/20 12:03:31;;;;;;;;;;;;;;;13.26;27.52;99154.09;5034809;28;19925;-63
2022/04/20 12:06:06;;;;;;;;;;;;;;;13.27;27.57;99140.53;5016183;28;20453;-62
2022/04/20 12:08:32;;;;;;;;;;;;;;;13.29;27.54;99132.28;5035058;28;19925;-62
2022/04/20 12:11:04;;;;;;;;;;;;;;;13.29;27.47;99157.03;5033312;28;19929;-62
2022/04/20 12:13:31;;;;;;;;;;;;;;;13.27;27.69;99115.78;5033558;28;19929;-64
2022/04/20 12:16:04;;;;;;;;;;;;;;;13.29;27.76;99137.59;5032553;28;19936;-61
2022/04/20 12:18:30;;;;;;;;;;;;;;;13.26;27.78;99122.16;5031935;28;19924;-63
2022/04/20 12:20:57;;;;;;;;;;;;;;;13.31;27.98;99140.81;5031908;28;19929;-60
2022/04/20 12:23:22;;;;;;;;;;;;;;;13.30;27.97;99155.97;5014631;28;20385;-63
2022/04/20 12:25:52;;;;;;;;;;;;;;;13.32;28.43;99148.50;5031170;28;19929;-62
2022/04/20 12:28:35;;;;;;;;;;;;;;;13.32;28.28;99118.44;5033457;28;19932;-61
2022/04/20 12:31:02;;;;;;;;;;;;;;;13.39;28.48;99149.09;5033501;28;20007;-62
2022/04/20 12:33:28;;;;;;;;;;;;;;;13.40;28.51;99169.31;5031502;28;19925;-62
2022/04/20 12:36:08;;;;;;;;;;;;;;;13.32;28.60;99118.44;5033069;28;20279;-62
2022/04/20 12:38:53;;;;;;;;;;;;;;;13.40;28.69;99139.22;5032718;28;19929;-64
2022/04/20 12:41:41;;;;;;;;;;;;;;;13.43;28.33;99120.06;5032944;28;19935;-61
2022/04/20 12:44:26;;;;;;;;;;;;;;;13.49;27.37;99148.31;5033309;28;19955;-60
2022/04/20 12:46:52;;;;;;;;;;;;;;;13.49;27.90;99137.66;5015521;28;20025;-62
2022/04/20 12:49:22;;;;;;;;;;;;;;;13.49;27.72;99142.97;5032012;28;20059;-62
2022/04/20 12:51:48;;;;;;;;;;;;;;;13.41;27.79;99116.88;5032189;28;19925;-61
2022/04/20 12:54:26;;;;;;;;;;;;;;;13.46;28.38;99103.56;5032566;28;20401;-62
2022/04/20 13:02:20;;;;;;;;;;;;;;;13.56;28.05;99105.44;5031732;28;19934;-62
2022/04/20 13:04:46;;;;;;;;;;;;;;;13.48;27.91;99127.28;5014699;28;20361;-62
2022/04/20 13:07:12;;;;;;;;;;;;;;;13.46;27.58;99126.75;5033198;28;19968;-59
2022/04/20 13:09:38;;;;;;;;;;;;;;;13.48;27.49;99116.63;5033844;28;20038;-61
2022/04/20 13:12:04;;;;;;;;;;;;;;;13.50;27.51;99135.78;5032828;28;19925;-63
2022/04/20 13:14:31;;;;;;;;;;;;;;;13.44;28.38;99100.38;5032756;28;19937;-62
2022/04/20 13:16:57;;;;;;;;;;;;;;;13.47;28.43;99096.38;5033371;28;20291;-61
2022/04/20 13:19:24;;;;;;;;;;;;;;;13.45;28.59;99107.31;5031224;28;20024;-61
2022/04/20 13:21:51;;;;;;;;;;;;;;;13.47;28.90;99085.72;4978166;28;19925;-61
2022/04/20 13:27:54;;;;;;;;;;;;;;;13.51;28.41;99078.84;5018864;28;19952;-62
2022/04/20 13:29:47;;;;;;;;;;;;;;;13.61;28.83;99121.44;5031204;28;19929;-64
2022/04/20 13:32:14;;;;;;;;;;;;;;;13.56;27.92;99118.75;5008075;28;20375;-65
2022/04/20 13:34:40;;;;;;;;;;;;;;;13.57;28.33;99096.41;5028671;28;19940;-66
2022/04/20 13:37:06;;;;;;;;;;;;;;;13.61;28.36;99084.94;5029996;28;20378;-63
2022/04/20 13:39:31;;;;;;;;;;;;;;;13.67;28.84;99122.25;5031156;28;19929;-65
2022/04/20 13:41:57;;;;;;;;;;;;;;;13.66;28.77;99089.50;5012793;28;19991;-61
2022/04/20 13:44:23;;;;;;;;;;;;;;;13.63;28.39;99100.69;4996903;28;19929;-64
2022/04/20 13:46:48;;;;;;;;;;;;;;;13.63;28.30;99082.84;5027517;28;19932;-64
2022/04/20 13:49:14;;;;;;;;;;;;;;;13.65;28.51;99079.91;5031061;28;20375;-64
2022/04/20 13:51:40;;;;;;;;;;;;;;;13.63;28.46;99127.31;5031735;28;20282;-62
2022/04/20 13:54:06;;;;;;;;;;;;;;;13.57;28.08;99093.75;5015074;28;20031;-62
2022/04/20 13:56:31;;;;;;;;;;;;;;;13.49;28.15;99102.25;5032099;28;20379;-60